Bulktec — VRFJ3 — position and weather

sailwx.info

Track history (hours):
 
Tides and Currents Weather Stations Pressure Air Temp Water Temp Dewpoint Dewpoint Depression Visibility Wind Speed Wind Dir Waves Ship Positions

Bulktec

Last reported at 2014-Aug-20 02:05 UTC. Time now 2014-Oct-01 20:32 UTC.
Position N 31°03' E 122°35'.
Warning: this ship's position is 42 days out of date.

Length 179 m; draft 6.6 m.

Type: Cargo ship. MMSI: 3699076.

Date/timePositionNaut miles runAvg speedWind from/ knotsBaromVisibWave heightAir tempDewpointWater temp
2014-Aug-20 02:05N 31°03' E 122°35'  
2014-Aug-13 17:32N 31°21' E 121°40'7 7.3
2014-Aug-13 16:33N 31°24' E 121°33'8 7.6
2014-Aug-13 15:33N 31°29' E 121°26'8 6.7
2014-Aug-13 14:19N 31°35' E 121°19'0 0.1
2014-Aug-13 13:11N 31°35' E 121°19'19 9.6
2014-Aug-13 11:10N 31°46' E 121°01'711.7
2014-Aug-13 10:33N 31°50' E 120°54'1211.5
2014-Aug-13 09:32N 32°00' E 120°47'9 9.0
2014-Aug-13 08:33N 31°60' E 120°37'8 8.4
2014-Aug-13 07:33N 32°01' E 120°27'9 8.7
2014-Aug-13 06:33N 31°57' E 120°18'1110.9
2014-Aug-13 05:33N 31°57' E 120°05'1413.6
2014-Aug-13 04:32N 32°08' E 119°54'  
Track history (hours):
 
Tides and Currents Weather Stations Pressure Air Temp Water Temp Dewpoint Dewpoint Depression Visibility Wind Speed Wind Dir Waves Ship Positions

Bulktec

Last reported at 2014-Aug-20 02:05 UTC. Time now 2014-Oct-01 20:32 UTC.
Position N 31°03' E 122°35'.
Warning: this ship's position is 42 days out of date.

Length 179 m; draft 6.6 m.

Type: Cargo ship. MMSI: 3699076.

Date/timePositionNaut miles runAvg speedWind from/ knotsBaromVisibWave heightAir tempDewpointWater temp
2014-Aug-20 02:05N 31°03' E 122°35'  
2014-Aug-13 17:32N 31°21' E 121°40'7 7.3
2014-Aug-13 16:33N 31°24' E 121°33'8 7.6
2014-Aug-13 15:33N 31°29' E 121°26'8 6.7
2014-Aug-13 14:19N 31°35' E 121°19'0 0.1
2014-Aug-13 13:11N 31°35' E 121°19'19 9.6
2014-Aug-13 11:10N 31°46' E 121°01'711.7
2014-Aug-13 10:33N 31°50' E 120°54'1211.5
2014-Aug-13 09:32N 32°00' E 120°47'9 9.0
2014-Aug-13 08:33N 31°60' E 120°37'8 8.4
2014-Aug-13 07:33N 32°01' E 120°27'9 8.7
2014-Aug-13 06:33N 31°57' E 120°18'1110.9
2014-Aug-13 05:33N 31°57' E 120°05'1413.6
2014-Aug-13 04:32N 32°08' E 119°54'  

Dump ship's entire track history